sensor_id;sensor_type;location;lat;lon;timestamp;P1;durP1;ratioP1;P2;durP2;ratioP2
13712;SDS011;6928;50.546;7.120;2023-06-19T00:01:41;1.33;;;1.17;;
13712;SDS011;6928;50.546;7.120;2023-06-19T00:04:08;1.25;;;1.10;;
13712;SDS011;6928;50.546;7.120;2023-06-19T00:06:37;1.10;;;1.00;;
13712;SDS011;6928;50.546;7.120;2023-06-19T00:09:03;1.08;;;1.08;;
13712;SDS011;6928;50.546;7.120;2023-06-19T00:11:31;1.13;;;1.08;;
13712;SDS011;6928;50.546;7.120;2023-06-19T00:14:00;1.17;;;1.08;;
13712;SDS011;6928;50.546;7.120;2023-06-19T00:16:26;1.35;;;1.23;;
13712;SDS011;6928;50.546;7.120;2023-06-19T00:18:53;1.75;;;1.15;;
13712;SDS011;6928;50.546;7.120;2023-06-19T00:21:21;1.20;;;1.10;;
13712;SDS011;6928;50.546;7.120;2023-06-19T00:23:50;1.10;;;1.00;;
13712;SDS011;6928;50.546;7.120;2023-06-19T00:26:18;1.00;;;1.00;;
13712;SDS011;6928;50.546;7.120;2023-06-19T00:28:47;0.77;;;0.77;;
13712;SDS011;6928;50.546;7.120;2023-06-19T00:31:14;0.95;;;0.95;;
13712;SDS011;6928;50.546;7.120;2023-06-19T00:33:42;0.98;;;0.90;;
13712;SDS011;6928;50.546;7.120;2023-06-19T00:36:10;1.00;;;0.98;;
13712;SDS011;6928;50.546;7.120;2023-06-19T00:38:37;1.00;;;0.90;;
13712;SDS011;6928;50.546;7.120;2023-06-19T00:41:05;1.15;;;1.00;;
13712;SDS011;6928;50.546;7.120;2023-06-19T00:43:32;1.45;;;1.35;;
13712;SDS011;6928;50.546;7.120;2023-06-19T00:46:00;1.40;;;0.90;;
13712;SDS011;6928;50.546;7.120;2023-06-19T00:48:27;1.10;;;1.00;;
13712;SDS011;6928;50.546;7.120;2023-06-19T00:50:55;1.25;;;1.10;;
13712;SDS011;6928;50.546;7.120;2023-06-19T00:53:23;0.90;;;0.90;;
13712;SDS011;6928;50.546;7.120;2023-06-19T00:55:50;1.30;;;1.20;;
13712;SDS011;6928;50.546;7.120;2023-06-19T00:58:20;1.50;;;1.40;;
13712;SDS011;6928;50.546;7.120;2023-06-19T01:00:47;1.42;;;1.33;;
13712;SDS011;6928;50.546;7.120;2023-06-19T01:03:14;1.00;;;0.95;;
13712;SDS011;6928;50.546;7.120;2023-06-19T01:05:41;0.70;;;0.70;;
13712;SDS011;6928;50.546;7.120;2023-06-19T01:08:09;1.33;;;1.08;;
13712;SDS011;6928;50.546;7.120;2023-06-19T01:10:39;1.00;;;0.82;;
13712;SDS011;6928;50.546;7.120;2023-06-19T01:13:10;0.75;;;0.75;;
13712;SDS011;6928;50.546;7.120;2023-06-19T01:15:43;0.90;;;0.90;;
13712;SDS011;6928;50.546;7.120;2023-06-19T01:18:10;1.60;;;1.33;;
13712;SDS011;6928;50.546;7.120;2023-06-19T01:20:38;0.95;;;0.95;;
13712;SDS011;6928;50.546;7.120;2023-06-19T01:23:08;1.00;;;1.00;;
13712;SDS011;6928;50.546;7.120;2023-06-19T01:25:35;1.17;;;1.13;;
13712;SDS011;6928;50.546;7.120;2023-06-19T01:28:01;1.42;;;1.20;;
13712;SDS011;6928;50.546;7.120;2023-06-19T01:30:30;0.90;;;0.90;;
13712;SDS011;6928;50.546;7.120;2023-06-19T01:32:58;1.35;;;1.27;;
13712;SDS011;6928;50.546;7.120;2023-06-19T01:35:31;2.22;;;1.00;;
13712;SDS011;6928;50.546;7.120;2023-06-19T01:38:02;1.17;;;1.08;;
13712;SDS011;6928;50.546;7.120;2023-06-19T01:40:30;1.42;;;1.33;;
13712;SDS011;6928;50.546;7.120;2023-06-19T01:42:57;1.15;;;1.05;;
13712;SDS011;6928;50.546;7.120;2023-06-19T01:45:26;1.45;;;1.00;;
13712;SDS011;6928;50.546;7.120;2023-06-19T01:47:54;0.88;;;0.88;;
13712;SDS011;6928;50.546;7.120;2023-06-19T01:50:21;1.40;;;1.30;;
13712;SDS011;6928;50.546;7.120;2023-06-19T01:52:48;0.95;;;0.95;;
13712;SDS011;6928;50.546;7.120;2023-06-19T01:55:15;1.85;;;1.42;;
13712;SDS011;6928;50.546;7.120;2023-06-19T01:57:43;2.55;;;1.50;;
13712;SDS011;6928;50.546;7.120;2023-06-19T02:00:11;1.23;;;1.20;;
13712;SDS011;6928;50.546;7.120;2023-06-19T02:02:38;1.60;;;1.25;;
13712;SDS011;6928;50.546;7.120;2023-06-19T02:05:05;1.15;;;1.05;;
13712;SDS011;6928;50.546;7.120;2023-06-19T02:07:32;1.90;;;1.17;;
13712;SDS011;6928;50.546;7.120;2023-06-19T02:09:59;1.10;;;1.10;;
13712;SDS011;6928;50.546;7.120;2023-06-19T02:12:25;1.52;;;0.93;;
13712;SDS011;6928;50.546;7.120;2023-06-19T02:14:53;1.40;;;1.30;;
13712;SDS011;6928;50.546;7.120;2023-06-19T02:17:20;0.85;;;0.80;;
13712;SDS011;6928;50.546;7.120;2023-06-19T02:19:46;1.50;;;1.40;;
13712;SDS011;6928;50.546;7.120;2023-06-19T02:22:13;1.30;;;1.20;;
13712;SDS011;6928;50.546;7.120;2023-06-19T02:24:40;2.35;;;1.65;;
13712;SDS011;6928;50.546;7.120;2023-06-19T02:27:06;1.55;;;1.33;;
13712;SDS011;6928;50.546;7.120;2023-06-19T02:29:33;1.20;;;1.10;;
13712;SDS011;6928;50.546;7.120;2023-06-19T02:32:01;1.60;;;1.00;;
13712;SDS011;6928;50.546;7.120;2023-06-19T02:34:28;1.15;;;1.08;;
13712;SDS011;6928;50.546;7.120;2023-06-19T02:36:55;1.20;;;1.10;;
13712;SDS011;6928;50.546;7.120;2023-06-19T02:39:21;0.90;;;0.90;;
13712;SDS011;6928;50.546;7.120;2023-06-19T02:41:49;1.13;;;1.13;;
13712;SDS011;6928;50.546;7.120;2023-06-19T02:44:15;1.17;;;1.05;;
13712;SDS011;6928;50.546;7.120;2023-06-19T02:46:42;1.25;;;1.10;;
13712;SDS011;6928;50.546;7.120;2023-06-19T02:49:10;1.40;;;1.30;;
13712;SDS011;6928;50.546;7.120;2023-06-19T02:51:37;1.33;;;1.08;;
13712;SDS011;6928;50.546;7.120;2023-06-19T02:54:04;1.30;;;1.20;;
13712;SDS011;6928;50.546;7.120;2023-06-19T02:56:31;1.17;;;1.05;;
13712;SDS011;6928;50.546;7.120;2023-06-19T02:58:58;1.73;;;1.20;;
13712;SDS011;6928;50.546;7.120;2023-06-19T03:01:25;1.33;;;1.08;;
13712;SDS011;6928;50.546;7.120;2023-06-19T03:03:52;1.30;;;1.17;;
13712;SDS011;6928;50.546;7.120;2023-06-19T03:06:20;1.73;;;1.10;;
13712;SDS011;6928;50.546;7.120;2023-06-19T03:08:47;0.80;;;0.80;;
13712;SDS011;6928;50.546;7.120;2023-06-19T03:11:13;1.05;;;0.88;;
13712;SDS011;6928;50.546;7.120;2023-06-19T03:13:44;2.20;;;1.40;;
13712;SDS011;6928;50.546;7.120;2023-06-19T03:16:12;1.42;;;1.30;;
13712;SDS011;6928;50.546;7.120;2023-06-19T03:18:39;1.45;;;1.35;;
13712;SDS011;6928;50.546;7.120;2023-06-19T03:21:06;1.17;;;1.10;;
13712;SDS011;6928;50.546;7.120;2023-06-19T03:23:34;1.13;;;1.08;;
13712;SDS011;6928;50.546;7.120;2023-06-19T03:26:00;1.17;;;1.00;;
13712;SDS011;6928;50.546;7.120;2023-06-19T03:28:27;0.93;;;0.90;;
13712;SDS011;6928;50.546;7.120;2023-06-19T03:30:54;1.75;;;0.90;;
13712;SDS011;6928;50.546;7.120;2023-06-19T03:33:21;1.10;;;1.10;;
13712;SDS011;6928;50.546;7.120;2023-06-19T03:35:48;1.33;;;0.95;;
13712;SDS011;6928;50.546;7.120;2023-06-19T03:38:14;1.23;;;1.10;;
13712;SDS011;6928;50.546;7.120;2023-06-19T03:40:43;1.45;;;0.98;;
13712;SDS011;6928;50.546;7.120;2023-06-19T03:43:09;1.08;;;0.98;;
13712;SDS011;6928;50.546;7.120;2023-06-19T03:45:37;0.90;;;0.90;;
13712;SDS011;6928;50.546;7.120;2023-06-19T03:48:03;1.20;;;1.10;;
13712;SDS011;6928;50.546;7.120;2023-06-19T03:50:30;0.90;;;0.90;;
13712;SDS011;6928;50.546;7.120;2023-06-19T03:52:57;1.48;;;1.27;;
13712;SDS011;6928;50.546;7.120;2023-06-19T03:55:23;0.88;;;0.88;;
13712;SDS011;6928;50.546;7.120;2023-06-19T03:57:51;1.23;;;1.13;;
13712;SDS011;6928;50.546;7.120;2023-06-19T04:00:19;1.40;;;1.30;;
13712;SDS011;6928;50.546;7.120;2023-06-19T04:02:46;1.05;;;1.05;;
13712;SDS011;6928;50.546;7.120;2023-06-19T04:05:14;1.00;;;0.88;;
13712;SDS011;6928;50.546;7.120;2023-06-19T04:07:41;1.30;;;1.15;;
13712;SDS011;6928;50.546;7.120;2023-06-19T04:10:08;0.68;;;0.68;;
13712;SDS011;6928;50.546;7.120;2023-06-19T04:12:36;0.82;;;0.82;;
13712;SDS011;6928;50.546;7.120;2023-06-19T04:15:05;0.80;;;0.80;;
13712;SDS011;6928;50.546;7.120;2023-06-19T04:17:32;3.40;;;1.88;;
13712;SDS011;6928;50.546;7.120;2023-06-19T04:19:58;1.30;;;1.20;;
13712;SDS011;6928;50.546;7.120;2023-06-19T04:22:25;4.32;;;1.17;;
13712;SDS011;6928;50.546;7.120;2023-06-19T04:24:52;1.10;;;1.00;;
13712;SDS011;6928;50.546;7.120;2023-06-19T04:27:18;1.25;;;1.20;;
13712;SDS011;6928;50.546;7.120;2023-06-19T04:29:45;1.10;;;1.10;;
13712;SDS011;6928;50.546;7.120;2023-06-19T04:32:13;0.88;;;0.88;;
13712;SDS011;6928;50.546;7.120;2023-06-19T04:34:40;2.40;;;1.45;;
13712;SDS011;6928;50.546;7.120;2023-06-19T04:37:11;1.30;;;1.20;;
13712;SDS011;6928;50.546;7.120;2023-06-19T04:39:38;1.13;;;1.05;;
13712;SDS011;6928;50.546;7.120;2023-06-19T04:42:04;1.50;;;1.30;;
13712;SDS011;6928;50.546;7.120;2023-06-19T04:44:32;1.10;;;1.10;;
13712;SDS011;6928;50.546;7.120;2023-06-19T04:46:59;1.58;;;1.48;;
13712;SDS011;6928;50.546;7.120;2023-06-19T04:49:28;1.45;;;1.35;;
13712;SDS011;6928;50.546;7.120;2023-06-19T04:51:56;1.05;;;1.05;;
13712;SDS011;6928;50.546;7.120;2023-06-19T04:54:23;1.30;;;1.20;;
13712;SDS011;6928;50.546;7.120;2023-06-19T04:56:49;1.00;;;0.82;;
13712;SDS011;6928;50.546;7.120;2023-06-19T04:59:16;1.77;;;1.05;;
13712;SDS011;6928;50.546;7.120;2023-06-19T05:01:44;1.73;;;0.88;;
13712;SDS011;6928;50.546;7.120;2023-06-19T05:04:10;1.23;;;1.00;;
13712;SDS011;6928;50.546;7.120;2023-06-19T05:06:38;1.13;;;0.90;;
13712;SDS011;6928;50.546;7.120;2023-06-19T05:09:05;0.77;;;0.77;;
13712;SDS011;6928;50.546;7.120;2023-06-19T05:11:32;1.23;;;1.20;;
13712;SDS011;6928;50.546;7.120;2023-06-19T05:13:58;4.85;;;1.20;;
13712;SDS011;6928;50.546;7.120;2023-06-19T05:16:25;1.13;;;1.05;;
13712;SDS011;6928;50.546;7.120;2023-06-19T05:18:52;0.73;;;0.73;;
13712;SDS011;6928;50.546;7.120;2023-06-19T05:21:18;1.90;;;1.45;;
13712;SDS011;6928;50.546;7.120;2023-06-19T05:23:46;0.90;;;0.90;;
13712;SDS011;6928;50.546;7.120;2023-06-19T05:26:15;0.75;;;0.75;;
13712;SDS011;6928;50.546;7.120;2023-06-19T05:28:42;0.90;;;0.90;;
13712;SDS011;6928;50.546;7.120;2023-06-19T05:31:08;0.80;;;0.80;;
13712;SDS011;6928;50.546;7.120;2023-06-19T05:33:35;0.85;;;0.85;;
13712;SDS011;6928;50.546;7.120;2023-06-19T05:36:02;1.40;;;1.30;;
13712;SDS011;6928;50.546;7.120;2023-06-19T05:38:29;2.38;;;1.27;;
13712;SDS011;6928;50.546;7.120;2023-06-19T05:40:57;1.30;;;1.05;;
13712;SDS011;6928;50.546;7.120;2023-06-19T05:43:24;0.90;;;0.90;;
13712;SDS011;6928;50.546;7.120;2023-06-19T05:45:50;0.80;;;0.80;;
13712;SDS011;6928;50.546;7.120;2023-06-19T05:48:17;0.85;;;0.85;;
13712;SDS011;6928;50.546;7.120;2023-06-19T05:50:44;3.00;;;0.88;;
13712;SDS011;6928;50.546;7.120;2023-06-19T05:53:11;1.45;;;0.82;;
13712;SDS011;6928;50.546;7.120;2023-06-19T05:55:37;0.90;;;0.90;;
13712;SDS011;6928;50.546;7.120;2023-06-19T05:58:05;0.77;;;0.77;;
13712;SDS011;6928;50.546;7.120;2023-06-19T06:00:32;1.00;;;0.90;;
13712;SDS011;6928;50.546;7.120;2023-06-19T06:02:59;1.13;;;0.75;;
13712;SDS011;6928;50.546;7.120;2023-06-19T06:05:27;1.08;;;0.95;;
13712;SDS011;6928;50.546;7.120;2023-06-19T06:07:54;0.85;;;0.85;;
13712;SDS011;6928;50.546;7.120;2023-06-19T06:10:20;0.73;;;0.70;;
13712;SDS011;6928;50.546;7.120;2023-06-19T06:12:48;0.70;;;0.70;;
13712;SDS011;6928;50.546;7.120;2023-06-19T06:15:16;0.57;;;0.57;;
13712;SDS011;6928;50.546;7.120;2023-06-19T06:17:43;1.33;;;0.65;;
13712;SDS011;6928;50.546;7.120;2023-06-19T06:20:10;0.60;;;0.60;;
13712;SDS011;6928;50.546;7.120;2023-06-19T06:22:38;0.75;;;0.75;;
13712;SDS011;6928;50.546;7.120;2023-06-19T06:25:05;2.53;;;0.80;;
13712;SDS011;6928;50.546;7.120;2023-06-19T06:27:32;0.63;;;0.63;;
13712;SDS011;6928;50.546;7.120;2023-06-19T06:29:58;0.67;;;0.67;;
13712;SDS011;6928;50.546;7.120;2023-06-19T06:32:27;1.15;;;0.93;;
13712;SDS011;6928;50.546;7.120;2023-06-19T06:34:54;0.55;;;0.55;;
13712;SDS011;6928;50.546;7.120;2023-06-19T06:37:21;0.50;;;0.50;;
13712;SDS011;6928;50.546;7.120;2023-06-19T06:39:48;0.90;;;0.90;;
13712;SDS011;6928;50.546;7.120;2023-06-19T06:42:15;0.50;;;0.47;;
13712;SDS011;6928;50.546;7.120;2023-06-19T06:44:42;0.47;;;0.47;;
13712;SDS011;6928;50.546;7.120;2023-06-19T06:47:09;0.47;;;0.47;;
13712;SDS011;6928;50.546;7.120;2023-06-19T06:49:37;0.32;;;0.32;;
13712;SDS011;6928;50.546;7.120;2023-06-19T06:52:03;0.50;;;0.50;;
13712;SDS011;6928;50.546;7.120;2023-06-19T06:54:31;0.38;;;0.38;;
13712;SDS011;6928;50.546;7.120;2023-06-19T06:56:57;0.90;;;0.68;;
13712;SDS011;6928;50.546;7.120;2023-06-19T06:59:25;6.38;;;0.55;;
13712;SDS011;6928;50.546;7.120;2023-06-19T07:01:52;0.65;;;0.50;;
13712;SDS011;6928;50.546;7.120;2023-06-19T07:04:18;0.43;;;0.43;;
13712;SDS011;6928;50.546;7.120;2023-06-19T07:06:47;0.93;;;0.57;;
13712;SDS011;6928;50.546;7.120;2023-06-19T07:09:14;1.13;;;0.52;;
13712;SDS011;6928;50.546;7.120;2023-06-19T07:11:41;3.00;;;0.60;;
13712;SDS011;6928;50.546;7.120;2023-06-19T07:14:08;2.05;;;0.60;;
13712;SDS011;6928;50.546;7.120;2023-06-19T07:16:35;0.30;;;0.30;;
13712;SDS011;6928;50.546;7.120;2023-06-19T07:19:02;0.30;;;0.30;;
13712;SDS011;6928;50.546;7.120;2023-06-19T07:21:29;0.50;;;0.50;;
13712;SDS011;6928;50.546;7.120;2023-06-19T07:23:57;1.33;;;0.63;;
13712;SDS011;6928;50.546;7.120;2023-06-19T07:26:25;1.10;;;0.52;;
13712;SDS011;6928;50.546;7.120;2023-06-19T07:28:51;0.98;;;0.77;;
13712;SDS011;6928;50.546;7.120;2023-06-19T07:31:18;0.80;;;0.80;;
13712;SDS011;6928;50.546;7.120;2023-06-19T07:33:45;0.30;;;0.30;;
13712;SDS011;6928;50.546;7.120;2023-06-19T07:36:11;0.60;;;0.60;;
13712;SDS011;6928;50.546;7.120;2023-06-19T07:38:39;0.40;;;0.40;;
13712;SDS011;6928;50.546;7.120;2023-06-19T07:41:07;0.50;;;0.45;;
13712;SDS011;6928;50.546;7.120;2023-06-19T07:43:35;0.50;;;0.50;;
13712;SDS011;6928;50.546;7.120;2023-06-19T07:46:01;0.52;;;0.52;;
13712;SDS011;6928;50.546;7.120;2023-06-19T07:48:28;0.25;;;0.25;;
13712;SDS011;6928;50.546;7.120;2023-06-19T07:50:55;0.93;;;0.68;;
13712;SDS011;6928;50.546;7.120;2023-06-19T07:53:22;0.50;;;0.50;;
13712;SDS011;6928;50.546;7.120;2023-06-19T07:55:48;1.20;;;0.70;;
13712;SDS011;6928;50.546;7.120;2023-06-19T07:58:17;0.75;;;0.43;;
13712;SDS011;6928;50.546;7.120;2023-06-19T08:00:44;0.30;;;0.30;;
13712;SDS011;6928;50.546;7.120;2023-06-19T08:03:10;0.65;;;0.65;;
13712;SDS011;6928;50.546;7.120;2023-06-19T08:05:37;0.40;;;0.40;;
13712;SDS011;6928;50.546;7.120;2023-06-19T08:08:04;0.68;;;0.45;;
13712;SDS011;6928;50.546;7.120;2023-06-19T08:10:31;0.50;;;0.50;;
13712;SDS011;6928;50.546;7.120;2023-06-19T08:12:57;0.32;;;0.32;;
13712;SDS011;6928;50.546;7.120;2023-06-19T08:15:26;0.40;;;0.40;;
13712;SDS011;6928;50.546;7.120;2023-06-19T08:17:53;0.60;;;0.60;;
13712;SDS011;6928;50.546;7.120;2023-06-19T08:20:20;0.40;;;0.40;;
13712;SDS011;6928;50.546;7.120;2023-06-19T08:22:46;1.83;;;0.47;;
13712;SDS011;6928;50.546;7.120;2023-06-19T08:25:13;0.32;;;0.32;;
13712;SDS011;6928;50.546;7.120;2023-06-19T08:27:40;0.40;;;0.30;;
13712;SDS011;6928;50.546;7.120;2023-06-19T08:30:07;0.20;;;0.20;;
13712;SDS011;6928;50.546;7.120;2023-06-19T08:32:35;0.50;;;0.50;;
13712;SDS011;6928;50.546;7.120;2023-06-19T08:35:02;0.25;;;0.25;;
13712;SDS011;6928;50.546;7.120;2023-06-19T08:37:29;0.40;;;0.40;;
13712;SDS011;6928;50.546;7.120;2023-06-19T08:39:56;3.95;;;0.40;;
13712;SDS011;6928;50.546;7.120;2023-06-19T08:42:23;0.22;;;0.22;;
13712;SDS011;6928;50.546;7.120;2023-06-19T08:44:50;0.40;;;0.40;;
13712;SDS011;6928;50.546;7.120;2023-06-19T08:47:16;0.40;;;0.40;;
13712;SDS011;6928;50.546;7.120;2023-06-19T08:49:44;0.40;;;0.40;;
13712;SDS011;6928;50.546;7.120;2023-06-19T08:52:11;0.40;;;0.40;;
13712;SDS011;6928;50.546;7.120;2023-06-19T08:54:38;0.52;;;0.52;;
13712;SDS011;6928;50.546;7.120;2023-06-19T08:57:09;0.50;;;0.50;;
13712;SDS011;6928;50.546;7.120;2023-06-19T08:59:36;0.40;;;0.40;;
13712;SDS011;6928;50.546;7.120;2023-06-19T09:02:03;0.47;;;0.40;;
13712;SDS011;6928;50.546;7.120;2023-06-19T09:04:30;0.43;;;0.43;;
13712;SDS011;6928;50.546;7.120;2023-06-19T09:07:00;0.28;;;0.28;;
13712;SDS011;6928;50.546;7.120;2023-06-19T09:09:28;0.63;;;0.50;;
13712;SDS011;6928;50.546;7.120;2023-06-19T09:11:59;0.40;;;0.40;;
13712;SDS011;6928;50.546;7.120;2023-06-19T09:14:31;0.55;;;0.55;;
13712;SDS011;6928;50.546;7.120;2023-06-19T09:16:59;0.35;;;0.35;;
13712;SDS011;6928;50.546;7.120;2023-06-19T09:19:27;0.57;;;0.57;;
13712;SDS011;6928;50.546;7.120;2023-06-19T09:22:00;1.02;;;0.20;;
13712;SDS011;6928;50.546;7.120;2023-06-19T09:24:33;1.13;;;0.52;;
13712;SDS011;6928;50.546;7.120;2023-06-19T09:27:05;1.58;;;0.60;;
13712;SDS011;6928;50.546;7.120;2023-06-19T09:29:35;0.50;;;0.50;;
13712;SDS011;6928;50.546;7.120;2023-06-19T09:32:13;0.82;;;0.50;;
13712;SDS011;6928;50.546;7.120;2023-06-19T09:34:41;1.35;;;0.50;;
13712;SDS011;6928;50.546;7.120;2023-06-19T09:37:09;0.80;;;0.60;;
13712;SDS011;6928;50.546;7.120;2023-06-19T09:39:36;0.30;;;0.30;;
13712;SDS011;6928;50.546;7.120;2023-06-19T09:42:04;0.30;;;0.30;;
13712;SDS011;6928;50.546;7.120;2023-06-19T09:44:36;0.40;;;0.40;;
13712;SDS011;6928;50.546;7.120;2023-06-19T09:47:07;0.75;;;0.35;;
13712;SDS011;6928;50.546;7.120;2023-06-19T09:49:44;0.47;;;0.47;;
13712;SDS011;6928;50.546;7.120;2023-06-19T09:52:16;0.60;;;0.60;;
13712;SDS011;6928;50.546;7.120;2023-06-19T09:54:47;1.30;;;0.60;;
13712;SDS011;6928;50.546;7.120;2023-06-19T09:57:15;0.90;;;0.63;;
13712;SDS011;6928;50.546;7.120;2023-06-19T09:59:41;0.40;;;0.40;;
13712;SDS011;6928;50.546;7.120;2023-06-19T10:02:10;0.68;;;0.68;;
13712;SDS011;6928;50.546;7.120;2023-06-19T10:04:54;0.40;;;0.40;;
13712;SDS011;6928;50.546;7.120;2023-06-19T10:08:28;0.40;;;0.40;;
13712;SDS011;6928;50.546;7.120;2023-06-19T10:10:56;0.43;;;0.43;;
13712;SDS011;6928;50.546;7.120;2023-06-19T10:13:30;0.65;;;0.63;;
13712;SDS011;6928;50.546;7.120;2023-06-19T10:15:58;0.40;;;0.40;;
13712;SDS011;6928;50.546;7.120;2023-06-19T10:18:25;1.00;;;0.50;;
13712;SDS011;6928;50.546;7.120;2023-06-19T10:20:53;0.40;;;0.40;;
13712;SDS011;6928;50.546;7.120;2023-06-19T10:23:20;0.80;;;0.40;;
13712;SDS011;6928;50.546;7.120;2023-06-19T10:25:55;1.02;;;0.93;;
13712;SDS011;6928;50.546;7.120;2023-06-19T10:28:24;0.40;;;0.40;;
13712;SDS011;6928;50.546;7.120;2023-06-19T10:30:52;3.80;;;2.38;;
13712;SDS011;6928;50.546;7.120;2023-06-19T10:33:21;1.65;;;0.80;;
13712;SDS011;6928;50.546;7.120;2023-06-19T10:35:49;0.68;;;0.47;;
13712;SDS011;6928;50.546;7.120;2023-06-19T10:38:16;0.77;;;0.50;;
13712;SDS011;6928;50.546;7.120;2023-06-19T10:40:44;0.50;;;0.50;;
13712;SDS011;6928;50.546;7.120;2023-06-19T10:43:13;0.52;;;0.52;;
13712;SDS011;6928;50.546;7.120;2023-06-19T10:45:45;0.22;;;0.22;;
13712;SDS011;6928;50.546;7.120;2023-06-19T10:48:17;0.65;;;0.65;;
13712;SDS011;6928;50.546;7.120;2023-06-19T10:50:45;0.95;;;0.80;;
13712;SDS011;6928;50.546;7.120;2023-06-19T10:53:22;0.93;;;0.38;;
13712;SDS011;6928;50.546;7.120;2023-06-19T10:55:54;0.52;;;0.52;;
13712;SDS011;6928;50.546;7.120;2023-06-19T10:58:22;0.38;;;0.38;;
13712;SDS011;6928;50.546;7.120;2023-06-19T11:00:49;0.28;;;0.28;;
13712;SDS011;6928;50.546;7.120;2023-06-19T11:03:16;0.50;;;0.50;;
13712;SDS011;6928;50.546;7.120;2023-06-19T11:05:43;0.40;;;0.40;;
13712;SDS011;6928;50.546;7.120;2023-06-19T11:08:16;0.57;;;0.57;;
13712;SDS011;6928;50.546;7.120;2023-06-19T11:10:44;1.17;;;0.55;;
13712;SDS011;6928;50.546;7.120;2023-06-19T11:13:13;0.52;;;0.50;;
13712;SDS011;6928;50.546;7.120;2023-06-19T11:15:42;0.45;;;0.45;;
13712;SDS011;6928;50.546;7.120;2023-06-19T11:18:08;0.50;;;0.50;;
13712;SDS011;6928;50.546;7.120;2023-06-19T11:20:42;0.95;;;0.43;;
13712;SDS011;6928;50.546;7.120;2023-06-19T11:23:10;0.52;;;0.52;;
13712;SDS011;6928;50.546;7.120;2023-06-19T11:25:38;1.13;;;0.80;;
13712;SDS011;6928;50.546;7.120;2023-06-19T11:28:10;0.43;;;0.43;;
13712;SDS011;6928;50.546;7.120;2023-06-19T11:30:39;0.57;;;0.57;;
13712;SDS011;6928;50.546;7.120;2023-06-19T11:33:16;0.43;;;0.43;;
13712;SDS011;6928;50.546;7.120;2023-06-19T11:35:47;0.70;;;0.60;;
13712;SDS011;6928;50.546;7.120;2023-06-19T11:38:18;0.50;;;0.50;;
13712;SDS011;6928;50.546;7.120;2023-06-19T11:40:45;0.50;;;0.50;;
13712;SDS011;6928;50.546;7.120;2023-06-19T11:43:12;0.50;;;0.50;;
13712;SDS011;6928;50.546;7.120;2023-06-19T11:45:49;0.35;;;0.35;;
13712;SDS011;6928;50.546;7.120;2023-06-19T11:48:23;0.50;;;0.20;;
13712;SDS011;6928;50.546;7.120;2023-06-19T11:50:51;1.23;;;0.82;;
13712;SDS011;6928;50.546;7.120;2023-06-19T11:53:19;0.77;;;0.75;;
13712;SDS011;6928;50.546;7.120;2023-06-19T11:55:46;0.60;;;0.40;;
13712;SDS011;6928;50.546;7.120;2023-06-19T11:58:15;1.35;;;0.60;;
13712;SDS011;6928;50.546;7.120;2023-06-19T12:00:42;0.43;;;0.40;;
13712;SDS011;6928;50.546;7.120;2023-06-19T12:03:09;0.70;;;0.60;;
13712;SDS011;6928;50.546;7.120;2023-06-19T12:05:37;0.43;;;0.43;;
13712;SDS011;6928;50.546;7.120;2023-06-19T12:08:05;0.50;;;0.50;;
13712;SDS011;6928;50.546;7.120;2023-06-19T12:10:32;0.40;;;0.40;;
13712;SDS011;6928;50.546;7.120;2023-06-19T12:12:59;0.60;;;0.60;;
13712;SDS011;6928;50.546;7.120;2023-06-19T12:15:27;0.50;;;0.45;;
13712;SDS011;6928;50.546;7.120;2023-06-19T12:17:54;0.50;;;0.50;;
13712;SDS011;6928;50.546;7.120;2023-06-19T12:20:22;1.65;;;0.70;;
13712;SDS011;6928;50.546;7.120;2023-06-19T12:22:51;0.50;;;0.50;;
13712;SDS011;6928;50.546;7.120;2023-06-19T12:25:18;0.82;;;0.65;;
13712;SDS011;6928;50.546;7.120;2023-06-19T12:27:45;3.13;;;0.63;;
13712;SDS011;6928;50.546;7.120;2023-06-19T12:30:12;0.50;;;0.50;;
13712;SDS011;6928;50.546;7.120;2023-06-19T12:32:39;1.13;;;0.70;;
13712;SDS011;6928;50.546;7.120;2023-06-19T12:35:06;0.55;;;0.55;;
13712;SDS011;6928;50.546;7.120;2023-06-19T12:37:33;0.75;;;0.75;;
13712;SDS011;6928;50.546;7.120;2023-06-19T12:40:01;0.43;;;0.40;;
13712;SDS011;6928;50.546;7.120;2023-06-19T12:42:33;0.50;;;0.50;;
13712;SDS011;6928;50.546;7.120;2023-06-19T12:45:01;0.63;;;0.60;;
13712;SDS011;6928;50.546;7.120;2023-06-19T12:47:28;0.50;;;0.50;;
13712;SDS011;6928;50.546;7.120;2023-06-19T12:49:54;1.25;;;0.50;;
13712;SDS011;6928;50.546;7.120;2023-06-19T12:52:21;1.33;;;0.73;;
13712;SDS011;6928;50.546;7.120;2023-06-19T12:54:48;0.32;;;0.32;;
13712;SDS011;6928;50.546;7.120;2023-06-19T12:57:17;0.47;;;0.47;;
13712;SDS011;6928;50.546;7.120;2023-06-19T12:59:44;0.65;;;0.65;;
13712;SDS011;6928;50.546;7.120;2023-06-19T13:02:11;1.58;;;0.60;;
13712;SDS011;6928;50.546;7.120;2023-06-19T13:04:38;0.55;;;0.55;;
13712;SDS011;6928;50.546;7.120;2023-06-19T13:07:05;1.25;;;0.70;;
13712;SDS011;6928;50.546;7.120;2023-06-19T13:09:33;0.52;;;0.52;;
13712;SDS011;6928;50.546;7.120;2023-06-19T13:12:06;0.50;;;0.50;;
13712;SDS011;6928;50.546;7.120;2023-06-19T13:14:35;0.85;;;0.40;;
13712;SDS011;6928;50.546;7.120;2023-06-19T13:17:03;0.65;;;0.65;;
13712;SDS011;6928;50.546;7.120;2023-06-19T13:19:30;0.50;;;0.50;;
13712;SDS011;6928;50.546;7.120;2023-06-19T13:21:56;0.60;;;0.60;;
13712;SDS011;6928;50.546;7.120;2023-06-19T13:24:23;0.40;;;0.40;;
13712;SDS011;6928;50.546;7.120;2023-06-19T13:26:52;0.40;;;0.40;;
13712;SDS011;6928;50.546;7.120;2023-06-19T13:29:19;0.55;;;0.55;;
13712;SDS011;6928;50.546;7.120;2023-06-19T13:31:47;0.50;;;0.50;;
13712;SDS011;6928;50.546;7.120;2023-06-19T13:34:14;0.50;;;0.50;;
13712;SDS011;6928;50.546;7.120;2023-06-19T13:36:41;1.13;;;0.98;;
13712;SDS011;6928;50.546;7.120;2023-06-19T13:39:08;1.20;;;0.98;;
13712;SDS011;6928;50.546;7.120;2023-06-19T13:41:36;0.55;;;0.55;;
13712;SDS011;6928;50.546;7.120;2023-06-19T13:44:02;0.40;;;0.40;;
13712;SDS011;6928;50.546;7.120;2023-06-19T13:46:29;0.73;;;0.73;;
13712;SDS011;6928;50.546;7.120;2023-06-19T13:48:58;0.52;;;0.52;;
13712;SDS011;6928;50.546;7.120;2023-06-19T13:51:25;0.50;;;0.50;;
13712;SDS011;6928;50.546;7.120;2023-06-19T13:53:53;0.70;;;0.70;;
13712;SDS011;6928;50.546;7.120;2023-06-19T13:56:20;0.60;;;0.60;;
13712;SDS011;6928;50.546;7.120;2023-06-19T13:58:48;0.40;;;0.40;;
13712;SDS011;6928;50.546;7.120;2023-06-19T14:01:15;1.00;;;0.40;;
13712;SDS011;6928;50.546;7.120;2023-06-19T14:03:42;1.35;;;0.65;;
13712;SDS011;6928;50.546;7.120;2023-06-19T14:06:10;1.50;;;0.65;;
13712;SDS011;6928;50.546;7.120;2023-06-19T14:08:37;0.45;;;0.45;;
13712;SDS011;6928;50.546;7.120;2023-06-19T14:11:04;0.60;;;0.60;;
13712;SDS011;6928;50.546;7.120;2023-06-19T14:13:31;0.40;;;0.40;;
13712;SDS011;6928;50.546;7.120;2023-06-19T14:15:58;1.08;;;0.98;;
13712;SDS011;6928;50.546;7.120;2023-06-19T14:18:25;0.52;;;0.50;;
13712;SDS011;6928;50.546;7.120;2023-06-19T14:20:52;0.47;;;0.47;;
13712;SDS011;6928;50.546;7.120;2023-06-19T14:23:21;0.60;;;0.60;;
13712;SDS011;6928;50.546;7.120;2023-06-19T14:25:48;0.40;;;0.40;;
13712;SDS011;6928;50.546;7.120;2023-06-19T14:28:15;0.40;;;0.40;;
13712;SDS011;6928;50.546;7.120;2023-06-19T14:30:42;0.82;;;0.80;;
13712;SDS011;6928;50.546;7.120;2023-06-19T14:33:09;0.57;;;0.57;;
13712;SDS011;6928;50.546;7.120;2023-06-19T14:35:40;0.85;;;0.47;;
13712;SDS011;6928;50.546;7.120;2023-06-19T14:38:07;0.80;;;0.80;;
13712;SDS011;6928;50.546;7.120;2023-06-19T14:40:35;0.43;;;0.43;;
13712;SDS011;6928;50.546;7.120;2023-06-19T14:43:02;0.50;;;0.50;;
13712;SDS011;6928;50.546;7.120;2023-06-19T14:45:28;0.50;;;0.50;;
13712;SDS011;6928;50.546;7.120;2023-06-19T14:47:55;0.60;;;0.60;;
13712;SDS011;6928;50.546;7.120;2023-06-19T14:50:22;0.60;;;0.60;;
13712;SDS011;6928;50.546;7.120;2023-06-19T14:52:50;1.92;;;0.68;;
13712;SDS011;6928;50.546;7.120;2023-06-19T14:55:17;0.40;;;0.40;;
13712;SDS011;6928;50.546;7.120;2023-06-19T14:57:45;0.60;;;0.60;;
13712;SDS011;6928;50.546;7.120;2023-06-19T15:00:12;0.47;;;0.47;;
13712;SDS011;6928;50.546;7.120;2023-06-19T15:02:40;0.45;;;0.45;;
13712;SDS011;6928;50.546;7.120;2023-06-19T15:05:07;0.75;;;0.50;;